»·PEaware :: N700DK KPAE-KOLM

N700DK :: KPAE-KOLM

FLIGHT INFORMATION

Flight Status: Arrived
Operator: Privately registered:
United States
More flights under this callsign
Pilot: Brendan O. (14500)
Aircraft: CESSNA 340
(C340)
More flights by this aircraft type
Origin: KPAE Paine Field/Snohomish Co.
United States
Destination: KOLM Olympia
United States
More flights between these airports :: More routes between these airports
Route: +PAE6 OLM
File this flight plan on PilotEdge
Remarks:
Altitude:
(Current/Filed)
4,000ft
Speed:
(Current/Filed)
185kts
Departed: 17-Jan-19 10:15 AM
Arrived: 17-Jan-19 11:05 AM
Distance/Time
Traveled:
62nm/0:50
Distance/Time
To Go:
Arrived

Flight Plot

Page will automatically refresh every two minutes.


Map Options




Map Legend


Flown Route
Filed Route
Departure Airport
Arrival Airport
Navaid (VOR, NDB)
Fix

Horizontal Profiles

Position Reports

Time Latitude Longitude Heading Altitude Ground
Speed
17-Jan-19 10:11 47.920397 -122.291010 309 573ft 0kts
17-Jan-19 10:12 47.920397 -122.291010 309 573ft 0kts
17-Jan-19 10:13 47.920397 -122.291010 309 573ft 0kts
17-Jan-19 10:14 21.315023 -157.915000 0 5999ft 99kts
17-Jan-19 10:15 21.315023 -157.915000 356 5999ft 91kts
17-Jan-19 10:16 21.315023 -157.915000 356 5999ft 91kts
17-Jan-19 10:17 47.920398 -122.291010 309 573ft 0kts
17-Jan-19 10:22 47.920397 -122.291010 309 573ft 0kts
17-Jan-19 10:23 47.920397 -122.291010 309 573ft 0kts
17-Jan-19 10:24 47.920397 -122.291010 309 573ft 0kts
17-Jan-19 10:25 47.920397 -122.291010 309 573ft 0kts
17-Jan-19 10:26 47.920398 -122.291010 309 573ft 0kts
17-Jan-19 10:27 47.920398 -122.291010 309 573ft 0kts
17-Jan-19 10:28 47.920398 -122.291010 309 573ft 0kts
17-Jan-19 10:29 47.920147 -122.290704 89 573ft 10kts
17-Jan-19 10:30 47.920144 -122.290251 96 572ft 0kts
17-Jan-19 10:31 47.920144 -122.290251 96 572ft 0kts
17-Jan-19 10:32 47.920144 -122.290251 96 572ft 0kts
17-Jan-19 10:33 47.920144 -122.290251 96 572ft 0kts
17-Jan-19 10:34 47.920144 -122.290249 96 572ft 0kts
17-Jan-19 10:35 47.920144 -122.290251 96 572ft 0kts
17-Jan-19 10:36 47.920800 -122.287479 60 560ft 14kts
17-Jan-19 10:37 47.920504 -122.285790 174 554ft 20kts
17-Jan-19 10:38 47.909769 -122.286337 178 712ft 118kts
17-Jan-19 10:39 47.873339 -122.287236 172 2400ft 145kts
17-Jan-19 10:40 47.835567 -122.311421 236 3803ft 174kts
17-Jan-19 10:41 47.836323 -122.386913 280 4123ft 194kts
17-Jan-19 10:42 47.838864 -122.468285 234 3826ft 205kts
17-Jan-19 10:43 47.792616 -122.502385 197 3860ft 188kts
17-Jan-19 10:44 47.745159 -122.530133 193 3916ft 174kts
17-Jan-19 10:45 47.697218 -122.546677 191 3878ft 180kts
17-Jan-19 10:46 47.650096 -122.566765 198 3940ft 176kts
17-Jan-19 10:47 47.603547 -122.588654 197 3970ft 176kts
17-Jan-19 10:48 47.557281 -122.611656 202 4003ft 176kts
17-Jan-19 10:49 47.511776 -122.638197 205 4055ft 175kts
17-Jan-19 10:50 47.470061 -122.665273 207 4111ft 174kts
17-Jan-19 10:51 47.435611 -122.680977 193 4090ft 178kts
17-Jan-19 10:52 47.387296 -122.693695 198 4063ft 176kts
17-Jan-19 10:53 47.354276 -122.742879 235 3936ft 173kts
17-Jan-19 10:54 47.327986 -122.799483 236 3807ft 174kts
17-Jan-19 10:55 47.283882 -122.815057 187 3807ft 167kts
17-Jan-19 10:56 47.236979 -122.826956 196 3471ft 171kts
17-Jan-19 10:57 47.189785 -122.839810 190 3086ft 174kts
17-Jan-19 10:58 47.142828 -122.852698 195 2707ft 172kts
17-Jan-19 10:59 47.097012 -122.866668 192 2420ft 168kts
17-Jan-19 11:00 47.056417 -122.879289 186 1936ft 139kts
17-Jan-19 11:01 47.021714 -122.888650 194 1030ft 113kts
17-Jan-19 11:02 46.992569 -122.897484 191 623ft 102kts
17-Jan-19 11:03 46.969243 -122.904478 191 201ft 49kts
17-Jan-19 11:04 46.967235 -122.903487 92 201ft 6kts
17-Jan-19 11:05 46.968090 -122.900798 11 201ft 0kts
17-Jan-19 11:06 46.968091 -122.900797 11 201ft 0kts
17-Jan-19 11:07 46.968091 -122.900797 11 201ft 0kts
17-Jan-19 11:08 46.968091 -122.900797 11 201ft 0kts
17-Jan-19 11:09 46.968091 -122.900797 11 201ft 0kts
17-Jan-19 11:10 46.968091 -122.900797 11 201ft 0kts
17-Jan-19 11:11 46.968091 -122.900797 11 201ft 0kts
17-Jan-19 11:12 46.968091 -122.900797 11 201ft 0kts
17-Jan-19 11:13 46.968091 -122.900797 11 201ft 0kts
17-Jan-19 11:14 46.968091 -122.900797 11 201ft 0kts
17-Jan-19 11:15 46.968091 -122.900797 11 201ft 0kts
17-Jan-19 11:16 46.968091 -122.900797 11 201ft 0kts
17-Jan-19 11:17 46.968091 -122.900797 11 201ft 0kts
17-Jan-19 11:18 46.968091 -122.900797 11 201ft 0kts
17-Jan-19 11:19 46.968091 -122.900797 11 201ft 0kts

Navigation Log

Ident Type
Flight plan parsing failed, navigation log unavailable